Time;durP1;ratioP1;P1;durP2;ratioP2;P2;SDS_P1;SDS_P2;PMS_P1;PMS_P2;Temp;Humidity;BMP_temperature;BMP_pressure;BME280_temperature;BME280_humidity;BME280_pressure;Samples;Min_cycle;Max_cycle;Signal;HPM_P1;HPM_P2
2023/12/16 00:01:31;;;;;;;;;;;9.00;99.90;;;;;;5011879;28;19975;-84
2023/12/16 00:03:57;;;;;;;;;;;9.00;99.90;;;;;;4995401;28;20355;-83
2023/12/16 00:06:23;;;;;;;;;;;9.00;99.90;;;;;;5008129;28;19916;-83
2023/12/16 00:08:48;;;;;;;;;;;9.00;99.90;;;;;;5011334;28;19909;-84
2023/12/16 00:11:14;;;;;;;;;;;9.00;99.90;;;;;;4999655;28;19913;-84
2023/12/16 00:13:39;;;;;;;;;;;9.00;99.90;;;;;;4998224;28;19920;-84
2023/12/16 00:16:05;;;;;;;;;;;9.00;99.90;;;;;;5000356;28;19918;-83
2023/12/16 00:18:31;;;;;;;;;;;9.00;99.90;;;;;;5006309;28;19949;-83
2023/12/16 00:20:56;;;;;;;;;;;9.00;99.90;;;;;;4999713;28;19922;-83
2023/12/16 00:23:21;;;;;;;;;;;9.00;99.90;;;;;;5004765;28;19916;-83
2023/12/16 00:25:47;;;;;;;;;;;9.00;99.90;;;;;;4998477;28;19941;-84
2023/12/16 00:28:12;;;;;;;;;;;9.00;99.90;;;;;;5001466;28;19995;-83
2023/12/16 00:30:38;;;;;;;;;;;9.00;99.90;;;;;;5008461;28;19909;-83
2023/12/16 00:33:03;;;;;;;;;;;9.00;99.90;;;;;;4999407;28;20779;-84
2023/12/16 00:35:29;;;;;;;;;;;9.00;99.90;;;;;;5002163;28;19920;-83
2023/12/16 00:37:54;;;;;;;;;;;9.00;99.90;;;;;;5005447;28;19953;-84
2023/12/16 00:40:20;;;;;;;;;;;9.00;99.90;;;;;;4996015;28;19930;-83
2023/12/16 00:42:45;;;;;;;;;;;9.00;99.90;;;;;;5005531;28;19918;-83
2023/12/16 00:45:10;;;;;;;;;;;9.00;99.90;;;;;;5002579;28;20391;-84
2023/12/16 00:47:37;;;;;;;;;;;9.00;99.90;;;;;;5004890;28;19910;-87
2023/12/16 00:50:04;;;;;;;;;;;9.00;99.90;;;;;;5006395;28;19906;-85
2023/12/16 00:52:30;;;;;;;;;;;9.00;99.90;;;;;;5004503;28;19956;-87
2023/12/16 00:54:55;;;;;;;;;;;9.00;99.90;;;;;;4998732;28;19956;-86
2023/12/16 00:57:21;;;;;;;;;;;9.00;99.90;;;;;;5006729;28;19906;-84
2023/12/16 00:59:46;;;;;;;;;;;9.00;99.90;;;;;;5010692;28;19917;-87
2023/12/16 01:02:12;;;;;;;;;;;9.00;99.90;;;;;;5008725;28;20353;-84
2023/12/16 01:04:37;;;;;;;;;;;9.00;99.90;;;;;;5009545;28;19917;-87
2023/12/16 01:07:03;;;;;;;;;;;9.00;99.90;;;;;;5000357;28;19925;-86
2023/12/16 01:09:28;;;;;;;;;;;9.00;99.90;;;;;;5010015;28;19916;-84
2023/12/16 01:11:54;;;;;;;;;;;9.00;99.90;;;;;;5005590;28;19909;-87
2023/12/16 01:14:20;;;;;;;;;;;9.00;99.90;;;;;;5010020;28;19906;-87
2023/12/16 01:16:45;;;;;;;;;;;9.00;99.90;;;;;;5005203;28;19914;-86
2023/12/16 01:19:11;;;;;;;;;;;9.00;99.90;;;;;;5003513;28;20352;-86
2023/12/16 01:21:40;;;;;;;;;;;9.00;99.90;;;;;;5013143;28;19917;-86
2023/12/16 01:24:06;;;;;;;;;;;9.00;99.90;;;;;;5006516;28;19910;-85
2023/12/16 01:26:31;;;;;;;;;;;9.00;99.90;;;;;;5009671;28;19938;-84
2023/12/16 01:28:57;;;;;;;;;;;9.00;99.90;;;;;;5002884;28;19920;-84
2023/12/16 01:31:22;;;;;;;;;;;9.00;99.90;;;;;;4995522;28;19906;-86
2023/12/16 01:33:48;;;;;;;;;;;9.00;99.90;;;;;;5011392;28;19910;-87
2023/12/16 01:36:13;;;;;;;;;;;9.00;99.90;;;;;;5012092;28;20307;-85
2023/12/16 01:38:39;;;;;;;;;;;9.00;99.90;;;;;;5012336;28;19913;-85
2023/12/16 01:41:04;;;;;;;;;;;9.00;99.90;;;;;;5014879;28;19913;-86
2023/12/16 01:43:29;;;;;;;;;;;9.00;99.90;;;;;;5002072;28;19936;-86
2023/12/16 01:45:59;;;;;;;;;;;9.00;99.90;;;;;;5005577;28;19996;-86
2023/12/16 01:48:25;;;;;;;;;;;9.00;99.90;;;;;;5012477;28;19917;-85
2023/12/16 01:50:50;;;;;;;;;;;9.00;99.90;;;;;;5018117;28;19964;-86
2023/12/16 01:53:17;;;;;;;;;;;9.00;99.90;;;;;;5010288;28;19916;-84
2023/12/16 01:55:42;;;;;;;;;;;9.00;99.90;;;;;;5005901;28;19905;-85
2023/12/16 01:58:08;;;;;;;;;;;8.90;99.90;;;;;;5023023;28;19940;-86
2023/12/16 02:00:34;;;;;;;;;;;8.90;99.90;;;;;;5002966;28;19913;-87
2023/12/16 02:03:00;;;;;;;;;;;8.90;99.90;;;;;;5013027;28;19909;-87
2023/12/16 02:05:25;;;;;;;;;;;9.00;99.90;;;;;;5008244;28;19952;-87
2023/12/16 02:07:51;;;;;;;;;;;9.00;99.90;;;;;;5009940;28;19957;-87
2023/12/16 02:10:17;;;;;;;;;;;9.00;99.90;;;;;;5019077;28;19914;-86
2023/12/16 02:12:43;;;;;;;;;;;9.00;99.90;;;;;;5013445;28;19921;-87
2023/12/16 02:15:09;;;;;;;;;;;9.00;99.90;;;;;;5000580;28;19909;-84
2023/12/16 02:17:34;;;;;;;;;;;9.00;99.90;;;;;;5005028;28;20059;-85
2023/12/16 02:20:00;;;;;;;;;;;9.00;99.90;;;;;;5009963;28;19913;-87
2023/12/16 02:22:25;;;;;;;;;;;9.00;99.90;;;;;;5019845;28;20351;-87
2023/12/16 02:24:51;;;;;;;;;;;8.90;99.90;;;;;;5011220;28;19910;-87
2023/12/16 02:27:16;;;;;;;;;;;9.00;99.90;;;;;;5005419;28;19963;-84
2023/12/16 02:29:42;;;;;;;;;;;8.90;99.90;;;;;;5011128;28;19991;-87
2023/12/16 02:32:07;;;;;;;;;;;8.90;99.90;;;;;;5006220;28;20374;-85
2023/12/16 02:34:33;;;;;;;;;;;8.90;99.90;;;;;;5006386;28;19925;-86
2023/12/16 02:37:02;;;;;;;;;;;8.90;99.90;;;;;;5012021;28;19916;-85
2023/12/16 02:39:27;;;;;;;;;;;8.90;99.90;;;;;;5007944;28;19909;-86
2023/12/16 02:41:53;;;;;;;;;;;8.90;99.90;;;;;;5009669;28;19969;-86
2023/12/16 02:44:18;;;;;;;;;;;8.90;99.90;;;;;;5005942;28;19917;-87
2023/12/16 02:46:43;;;;;;;;;;;9.00;99.90;;;;;;5004345;28;19989;-85
2023/12/16 02:49:09;;;;;;;;;;;9.00;99.90;;;;;;5012650;28;19913;-86
2023/12/16 02:51:34;;;;;;;;;;;9.00;99.90;;;;;;5008100;28;19968;-87
2023/12/16 02:54:00;;;;;;;;;;;8.90;99.90;;;;;;5011631;28;19909;-86
2023/12/16 02:56:25;;;;;;;;;;;9.00;99.90;;;;;;5010250;28;20004;-86
2023/12/16 02:58:51;;;;;;;;;;;9.00;99.90;;;;;;5007584;28;19913;-85
2023/12/16 03:01:16;;;;;;;;;;;8.90;99.90;;;;;;5001743;28;19909;-87
2023/12/16 03:03:42;;;;;;;;;;;8.90;99.90;;;;;;5024482;28;19914;-86
2023/12/16 03:06:07;;;;;;;;;;;9.00;99.90;;;;;;4996657;28;19913;-85
2023/12/16 03:08:33;;;;;;;;;;;9.00;99.90;;;;;;5004929;28;19918;-87
2023/12/16 03:11:00;;;;;;;;;;;8.90;99.90;;;;;;5007226;28;19944;-87
2023/12/16 03:13:25;;;;;;;;;;;9.00;99.90;;;;;;5015579;28;19997;-86
2023/12/16 03:15:51;;;;;;;;;;;9.00;99.90;;;;;;5010543;28;20059;-87
2023/12/16 03:18:16;;;;;;;;;;;9.00;99.90;;;;;;5010907;28;19916;-87
2023/12/16 03:20:42;;;;;;;;;;;9.00;99.90;;;;;;5003691;28;19920;-85
2023/12/16 03:23:07;;;;;;;;;;;8.90;99.90;;;;;;5012358;28;19909;-86
2023/12/16 03:25:32;;;;;;;;;;;8.90;99.90;;;;;;5002654;28;19917;-87
2023/12/16 03:27:58;;;;;;;;;;;9.00;99.90;;;;;;5002957;28;20394;-84
2023/12/16 03:30:23;;;;;;;;;;;8.90;99.90;;;;;;5004864;28;19916;-85
2023/12/16 03:32:49;;;;;;;;;;;9.00;99.90;;;;;;5008087;28;20286;-87
2023/12/16 03:35:14;;;;;;;;;;;8.90;99.90;;;;;;5001042;28;20005;-86
2023/12/16 03:37:40;;;;;;;;;;;8.90;99.90;;;;;;5011483;28;19913;-86
2023/12/16 03:40:05;;;;;;;;;;;8.90;99.90;;;;;;5007843;28;19909;-85
2023/12/16 03:42:33;;;;;;;;;;;8.90;99.90;;;;;;5016081;28;19927;-87
2023/12/16 03:44:58;;;;;;;;;;;8.90;99.90;;;;;;5004580;28;19913;-86
2023/12/16 03:47:24;;;;;;;;;;;8.90;99.90;;;;;;5001456;28;19906;-86
2023/12/16 03:49:49;;;;;;;;;;;8.90;99.90;;;;;;5011957;28;19913;-85
2023/12/16 03:52:15;;;;;;;;;;;8.90;99.90;;;;;;5007198;28;19956;-86
2023/12/16 03:54:40;;;;;;;;;;;8.90;99.90;;;;;;5008696;28;19905;-85
2023/12/16 03:57:06;;;;;;;;;;;9.00;99.90;;;;;;5009244;28;19914;-84
2023/12/16 03:59:31;;;;;;;;;;;9.00;99.90;;;;;;5005765;28;19909;-87
2023/12/16 04:01:57;;;;;;;;;;;8.90;99.90;;;;;;5014367;28;20706;-84
2023/12/16 04:04:22;;;;;;;;;;;8.90;99.90;;;;;;5008560;28;19945;-86
2023/12/16 04:06:48;;;;;;;;;;;9.00;99.90;;;;;;5006865;28;19952;-83
2023/12/16 04:09:13;;;;;;;;;;;8.90;99.90;;;;;;5004853;28;19906;-86
2023/12/16 04:11:45;;;;;;;;;;;9.00;99.90;;;;;;4995614;28;19993;-86
2023/12/16 04:14:11;;;;;;;;;;;8.90;99.90;;;;;;5003681;28;20356;-86
2023/12/16 04:16:37;;;;;;;;;;;8.90;99.90;;;;;;5006193;28;19959;-83
2023/12/16 04:19:02;;;;;;;;;;;8.90;99.90;;;;;;5007948;28;20003;-87
2023/12/16 04:21:28;;;;;;;;;;;8.90;99.90;;;;;;5003078;28;20375;-87
2023/12/16 04:23:53;;;;;;;;;;;9.00;99.90;;;;;;5004373;28;20287;-86
2023/12/16 04:26:19;;;;;;;;;;;9.00;99.90;;;;;;5006135;28;19920;-83
2023/12/16 04:28:44;;;;;;;;;;;9.00;99.90;;;;;;5012606;28;19917;-83
2023/12/16 04:31:14;;;;;;;;;;;8.90;99.90;;;;;;5010329;28;20686;-83
2023/12/16 04:33:39;;;;;;;;;;;8.90;99.90;;;;;;5000971;28;19953;-83
2023/12/16 04:36:05;;;;;;;;;;;9.00;99.90;;;;;;5001464;28;20446;-84
2023/12/16 04:38:30;;;;;;;;;;;8.90;99.90;;;;;;5004612;28;19910;-83
2023/12/16 04:40:56;;;;;;;;;;;8.90;99.90;;;;;;5012356;28;20387;-83
2023/12/16 04:43:21;;;;;;;;;;;8.90;99.90;;;;;;5006356;28;19937;-83
2023/12/16 04:45:47;;;;;;;;;;;8.90;99.90;;;;;;5009632;28;20418;-84
2023/12/16 04:48:12;;;;;;;;;;;8.90;99.90;;;;;;5009178;28;19909;-83
2023/12/16 04:50:38;;;;;;;;;;;8.90;99.90;;;;;;5011122;28;19914;-83
2023/12/16 04:53:03;;;;;;;;;;;8.90;99.90;;;;;;5014969;28;19913;-83
2023/12/16 04:55:29;;;;;;;;;;;8.90;99.90;;;;;;5010266;28;19916;-83
2023/12/16 04:57:54;;;;;;;;;;;8.90;99.90;;;;;;5008524;28;20372;-83
2023/12/16 05:00:19;;;;;;;;;;;8.90;99.90;;;;;;5008471;28;19913;-84
2023/12/16 05:02:45;;;;;;;;;;;8.90;99.90;;;;;;5012527;28;19913;-83
2023/12/16 05:05:10;;;;;;;;;;;8.90;99.90;;;;;;5008561;28;20279;-84
2023/12/16 05:07:36;;;;;;;;;;;8.90;99.90;;;;;;5011005;28;19998;-83
2023/12/16 05:10:02;;;;;;;;;;;8.90;99.90;;;;;;5012515;28;19910;-84
2023/12/16 05:12:27;;;;;;;;;;;8.90;99.90;;;;;;5008679;28;20357;-83
2023/12/16 05:14:53;;;;;;;;;;;8.90;99.90;;;;;;5015179;28;20414;-83
2023/12/16 05:17:19;;;;;;;;;;;8.90;99.90;;;;;;5009108;28;19917;-83
2023/12/16 05:19:45;;;;;;;;;;;8.90;99.90;;;;;;5006765;28;19910;-84
2023/12/16 05:22:10;;;;;;;;;;;8.90;99.90;;;;;;5008472;28;19914;-85
2023/12/16 05:24:36;;;;;;;;;;;8.90;99.90;;;;;;5009402;28;19916;-85
2023/12/16 05:27:01;;;;;;;;;;;8.90;99.90;;;;;;5013763;28;20375;-83
2023/12/16 05:29:27;;;;;;;;;;;8.90;99.90;;;;;;5009286;28;19914;-83
2023/12/16 05:31:52;;;;;;;;;;;8.90;99.90;;;;;;5006844;28;19909;-84
2023/12/16 05:34:18;;;;;;;;;;;8.90;99.90;;;;;;5008573;28;19920;-83
2023/12/16 05:36:44;;;;;;;;;;;8.90;99.90;;;;;;5018518;28;20627;-83
2023/12/16 05:39:09;;;;;;;;;;;8.90;99.90;;;;;;5005109;28;19916;-84
2023/12/16 05:41:35;;;;;;;;;;;8.90;99.90;;;;;;5021758;28;19932;-83
2023/12/16 05:44:00;;;;;;;;;;;8.90;99.90;;;;;;5013539;28;19925;-83
2023/12/16 05:46:26;;;;;;;;;;;8.90;99.90;;;;;;5009731;28;19909;-83
2023/12/16 05:48:51;;;;;;;;;;;8.90;99.90;;;;;;5009465;28;19919;-83
2023/12/16 05:51:17;;;;;;;;;;;8.90;99.90;;;;;;5009692;28;19963;-83
2023/12/16 05:53:42;;;;;;;;;;;8.90;99.90;;;;;;5015126;28;19913;-83
2023/12/16 05:56:09;;;;;;;;;;;8.90;99.90;;;;;;5014060;28;19909;-85
2023/12/16 05:58:34;;;;;;;;;;;8.90;99.90;;;;;;5005156;28;19909;-83
2023/12/16 06:01:00;;;;;;;;;;;8.90;99.90;;;;;;5004336;28;19910;-83
2023/12/16 06:03:26;;;;;;;;;;;8.90;99.90;;;;;;5008359;28;19960;-83
2023/12/16 06:05:51;;;;;;;;;;;8.90;99.90;;;;;;5011575;28;19926;-83
2023/12/16 06:08:17;;;;;;;;;;;8.90;99.90;;;;;;5017541;28;19948;-83
2023/12/16 06:10:42;;;;;;;;;;;8.90;99.90;;;;;;5005104;28;19913;-83
2023/12/16 06:13:08;;;;;;;;;;;8.90;99.90;;;;;;5008052;28;20382;-83
2023/12/16 06:15:33;;;;;;;;;;;8.90;99.90;;;;;;5005669;28;19913;-83
2023/12/16 06:18:02;;;;;;;;;;;8.90;99.90;;;;;;5005655;28;19918;-83
2023/12/16 06:20:28;;;;;;;;;;;8.80;99.90;;;;;;5009831;28;19919;-85
2023/12/16 06:22:53;;;;;;;;;;;8.90;99.90;;;;;;5008271;28;19913;-84
2023/12/16 06:25:19;;;;;;;;;;;8.90;99.90;;;;;;5015635;28;19916;-83
2023/12/16 06:27:44;;;;;;;;;;;8.90;99.90;;;;;;5007378;28;20368;-83
2023/12/16 06:30:11;;;;;;;;;;;8.90;99.90;;;;;;5016061;28;19913;-83
2023/12/16 06:32:36;;;;;;;;;;;8.90;99.90;;;;;;5012041;28;19916;-83
2023/12/16 06:35:02;;;;;;;;;;;8.80;99.90;;;;;;5013464;28;19914;-83
2023/12/16 06:37:27;;;;;;;;;;;8.80;99.90;;;;;;4997513;28;19935;-83
2023/12/16 06:39:53;;;;;;;;;;;8.80;99.90;;;;;;5009386;28;19925;-82
2023/12/16 06:42:18;;;;;;;;;;;8.80;99.90;;;;;;5006226;28;19988;-84
2023/12/16 06:44:44;;;;;;;;;;;8.80;99.90;;;;;;5011284;28;19993;-83
2023/12/16 06:47:09;;;;;;;;;;;8.80;99.90;;;;;;5008589;28;19924;-83
2023/12/16 06:49:35;;;;;;;;;;;8.80;99.90;;;;;;5002331;28;20039;-83
2023/12/16 06:52:00;;;;;;;;;;;8.80;99.90;;;;;;4997973;28;19936;-83
2023/12/16 06:54:26;;;;;;;;;;;8.80;99.90;;;;;;4994955;28;19913;-83
2023/12/16 06:56:51;;;;;;;;;;;8.80;99.90;;;;;;5015329;28;19989;-82
2023/12/16 06:59:17;;;;;;;;;;;8.80;99.90;;;;;;5014660;28;19912;-83
2023/12/16 07:01:42;;;;;;;;;;;8.80;99.90;;;;;;5005945;28;20296;-83
2023/12/16 07:04:08;;;;;;;;;;;8.80;99.90;;;;;;5007979;28;20386;-82
2023/12/16 07:06:34;;;;;;;;;;;8.80;99.90;;;;;;5004248;28;19992;-83
2023/12/16 07:08:59;;;;;;;;;;;8.80;99.90;;;;;;5006867;28;19909;-83
2023/12/16 07:11:25;;;;;;;;;;;8.80;99.90;;;;;;5012779;28;20375;-83
2023/12/16 07:13:50;;;;;;;;;;;8.80;99.90;;;;;;5000384;28;19909;-85
2023/12/16 07:16:16;;;;;;;;;;;8.80;99.90;;;;;;5007835;28;20379;-83
2023/12/16 07:18:42;;;;;;;;;;;8.80;99.90;;;;;;5003304;28;20072;-84
2023/12/16 07:21:08;;;;;;;;;;;8.80;99.90;;;;;;5008538;28;19917;-83
2023/12/16 07:23:33;;;;;;;;;;;8.80;99.90;;;;;;5007315;28;19925;-83
2023/12/16 07:25:59;;;;;;;;;;;8.80;99.90;;;;;;5005560;28;19913;-83
2023/12/16 07:28:25;;;;;;;;;;;8.80;99.90;;;;;;5013668;28;19909;-84
2023/12/16 07:30:50;;;;;;;;;;;8.80;99.90;;;;;;5017046;28;19913;-83
2023/12/16 07:33:15;;;;;;;;;;;8.80;99.90;;;;;;5006974;28;19920;-83
2023/12/16 07:35:41;;;;;;;;;;;8.80;99.90;;;;;;5004891;28;19920;-83
2023/12/16 07:38:07;;;;;;;;;;;8.80;99.90;;;;;;5007265;28;19921;-82
2023/12/16 07:40:33;;;;;;;;;;;8.80;99.90;;;;;;5006775;28;19917;-84
2023/12/16 07:42:59;;;;;;;;;;;8.80;99.90;;;;;;5020715;28;19917;-83
2023/12/16 07:45:24;;;;;;;;;;;8.80;99.90;;;;;;5008039;28;20524;-84
2023/12/16 07:47:50;;;;;;;;;;;8.80;99.90;;;;;;5014134;28;20302;-83
2023/12/16 07:50:19;;;;;;;;;;;8.90;99.90;;;;;;5001739;28;19914;-83
2023/12/16 07:52:46;;;;;;;;;;;8.90;99.90;;;;;;5005179;28;19917;-84
2023/12/16 07:55:12;;;;;;;;;;;8.90;99.90;;;;;;5008115;28;19909;-82
2023/12/16 07:57:37;;;;;;;;;;;8.90;99.90;;;;;;5010407;28;20000;-83
2023/12/16 08:00:03;;;;;;;;;;;8.90;99.90;;;;;;5011522;28;20287;-84
2023/12/16 08:02:30;;;;;;;;;;;8.90;99.90;;;;;;4999366;28;19968;-83
2023/12/16 08:04:56;;;;;;;;;;;8.90;99.90;;;;;;5007438;28;19917;-83
2023/12/16 08:07:22;;;;;;;;;;;8.90;99.90;;;;;;5011119;28;20115;-83
2023/12/16 08:09:47;;;;;;;;;;;8.90;99.90;;;;;;5007809;28;19920;-83
2023/12/16 08:12:13;;;;;;;;;;;8.90;99.90;;;;;;5010020;28;19914;-83
2023/12/16 08:14:38;;;;;;;;;;;9.00;99.90;;;;;;5016423;28;19909;-83
2023/12/16 08:17:03;;;;;;;;;;;9.00;99.90;;;;;;5011617;28;19910;-84
2023/12/16 08:19:29;;;;;;;;;;;9.00;99.90;;;;;;5013325;28;19910;-83
2023/12/16 08:21:54;;;;;;;;;;;9.00;99.90;;;;;;5015041;28;19918;-83
2023/12/16 08:24:20;;;;;;;;;;;9.10;99.90;;;;;;5011881;28;19909;-84
2023/12/16 08:26:49;;;;;;;;;;;9.10;99.90;;;;;;5010074;28;19913;-83
2023/12/16 08:29:15;;;;;;;;;;;9.10;99.90;;;;;;5013523;28;20690;-83
2023/12/16 08:31:41;;;;;;;;;;;9.10;99.90;;;;;;5017956;28;19913;-84
2023/12/16 08:34:06;;;;;;;;;;;9.20;99.90;;;;;;5012140;28;20300;-84
2023/12/16 08:36:31;;;;;;;;;;;9.20;99.90;;;;;;5015803;28;19914;-84
2023/12/16 08:38:57;;;;;;;;;;;9.20;99.90;;;;;;5012295;28;19914;-83
2023/12/16 08:41:22;;;;;;;;;;;9.20;99.90;;;;;;5007200;28;19921;-82
2023/12/16 08:43:48;;;;;;;;;;;9.20;99.90;;;;;;5002441;28;19964;-83
2023/12/16 08:46:13;;;;;;;;;;;9.30;99.90;;;;;;5009764;28;20331;-83
2023/12/16 08:48:40;;;;;;;;;;;9.30;99.90;;;;;;5011293;28;19971;-83
2023/12/16 08:51:06;;;;;;;;;;;9.30;99.90;;;;;;5012194;28;19942;-84
2023/12/16 08:53:31;;;;;;;;;;;9.30;99.90;;;;;;5016280;28;19939;-83
2023/12/16 08:55:57;;;;;;;;;;;9.30;99.90;;;;;;5012687;28;19917;-83
2023/12/16 08:58:22;;;;;;;;;;;9.30;99.90;;;;;;5009303;28;19921;-84
2023/12/16 09:00:48;;;;;;;;;;;9.30;99.90;;;;;;5010726;28;19920;-84
2023/12/16 09:03:14;;;;;;;;;;;9.30;99.90;;;;;;5004458;28;20376;-84
2023/12/16 09:05:41;;;;;;;;;;;9.40;99.90;;;;;;5003110;28;19910;-83
2023/12/16 09:08:06;;;;;;;;;;;9.30;99.90;;;;;;5012144;28;19925;-83
2023/12/16 09:10:33;;;;;;;;;;;9.30;99.90;;;;;;5016851;28;20287;-84
2023/12/16 09:12:59;;;;;;;;;;;9.40;99.90;;;;;;5011158;28;19917;-84
2023/12/16 09:15:24;;;;;;;;;;;9.40;99.90;;;;;;5008294;28;19909;-83
2023/12/16 09:17:50;;;;;;;;;;;9.40;99.90;;;;;;5012819;28;20363;-83
2023/12/16 09:20:15;;;;;;;;;;;9.40;99.90;;;;;;5010838;28;19913;-83
2023/12/16 09:22:41;;;;;;;;;;;9.40;99.90;;;;;;5022020;28;19949;-83
2023/12/16 09:25:08;;;;;;;;;;;9.40;99.90;;;;;;5016452;28;19963;-83
2023/12/16 09:27:34;;;;;;;;;;;9.50;99.90;;;;;;5017991;28;19917;-84
2023/12/16 09:29:59;;;;;;;;;;;9.50;99.90;;;;;;5000186;28;20426;-84
2023/12/16 09:32:25;;;;;;;;;;;9.50;99.90;;;;;;5014634;28;19917;-83
2023/12/16 09:34:50;;;;;;;;;;;9.50;99.90;;;;;;5011892;28;20665;-83
2023/12/16 09:37:16;;;;;;;;;;;9.50;99.90;;;;;;5014484;28;19959;-83
2023/12/16 09:39:41;;;;;;;;;;;9.60;99.90;;;;;;5010030;28;20017;-84
2023/12/16 09:42:07;;;;;;;;;;;9.60;99.90;;;;;;5015362;28;20482;-84
2023/12/16 09:44:36;;;;;;;;;;;9.60;99.90;;;;;;5003163;28;20409;-83
2023/12/16 09:47:02;;;;;;;;;;;9.50;99.90;;;;;;5013772;28;20653;-84
2023/12/16 09:49:29;;;;;;;;;;;9.50;99.90;;;;;;5011546;28;19917;-83
2023/12/16 09:51:55;;;;;;;;;;;9.50;99.90;;;;;;5011198;28;19963;-83
2023/12/16 09:54:20;;;;;;;;;;;9.50;99.90;;;;;;5008708;28;19910;-83
2023/12/16 09:56:48;;;;;;;;;;;9.50;99.90;;;;;;5009437;28;19962;-84
2023/12/16 09:59:14;;;;;;;;;;;9.50;99.90;;;;;;5012582;28;19914;-83
2023/12/16 10:01:40;;;;;;;;;;;9.50;99.90;;;;;;5013281;28;20339;-84
2023/12/16 10:04:06;;;;;;;;;;;9.50;99.90;;;;;;5015133;28;20414;-83
2023/12/16 10:06:31;;;;;;;;;;;9.40;99.90;;;;;;5010695;28;19922;-83
2023/12/16 10:08:57;;;;;;;;;;;9.50;99.90;;;;;;5009101;28;20537;-83
2023/12/16 10:11:23;;;;;;;;;;;9.50;99.90;;;;;;5010979;28;19917;-83
2023/12/16 10:13:56;;;;;;;;;;;9.50;99.90;;;;;;5012300;28;19909;-83
2023/12/16 10:16:23;;;;;;;;;;;9.50;99.90;;;;;;5023813;28;20091;-83
2023/12/16 10:18:53;;;;;;;;;;;9.50;99.90;;;;;;5010663;28;19914;-83
2023/12/16 10:21:26;;;;;;;;;;;9.50;99.90;;;;;;5007192;28;19913;-83
2023/12/16 10:23:52;;;;;;;;;;;9.50;99.90;;;;;;5007605;28;19973;-83
2023/12/16 10:26:18;;;;;;;;;;;9.50;99.90;;;;;;5016237;28;19917;-84
2023/12/16 10:28:47;;;;;;;;;;;9.50;99.90;;;;;;5016520;28;19975;-84
2023/12/16 10:31:13;;;;;;;;;;;9.50;99.90;;;;;;5008118;28;20559;-84
2023/12/16 10:33:39;;;;;;;;;;;9.60;99.90;;;;;;5009976;28;19916;-84
2023/12/16 10:36:05;;;;;;;;;;;9.60;99.90;;;;;;5011645;28;19909;-83
2023/12/16 10:38:31;;;;;;;;;;;9.60;99.90;;;;;;5006118;28;19916;-83
2023/12/16 10:40:56;;;;;;;;;;;9.60;99.90;;;;;;5011881;28;20407;-82
2023/12/16 10:43:21;;;;;;;;;;;9.70;99.90;;;;;;5008762;28;19959;-84
2023/12/16 10:45:48;;;;;;;;;;;9.60;99.90;;;;;;5009386;28;19925;-84
2023/12/16 10:48:14;;;;;;;;;;;9.70;99.90;;;;;;5006148;28;20629;-84
2023/12/16 10:50:43;;;;;;;;;;;9.70;99.90;;;;;;5013483;28;19998;-83
2023/12/16 10:53:10;;;;;;;;;;;9.70;99.90;;;;;;5011180;28;19913;-83
2023/12/16 10:55:40;;;;;;;;;;;9.70;99.90;;;;;;5010387;28;19940;-83
2023/12/16 10:58:08;;;;;;;;;;;9.80;99.90;;;;;;5008466;28;19949;-83
2023/12/16 11:00:37;;;;;;;;;;;9.80;99.90;;;;;;5014297;28;20431;-83
2023/12/16 11:03:03;;;;;;;;;;;9.90;99.90;;;;;;5007375;28;19921;-83
2023/12/16 11:05:31;;;;;;;;;;;9.80;99.90;;;;;;5009292;28;19909;-84
2023/12/16 11:08:03;;;;;;;;;;;9.80;99.90;;;;;;4998126;28;19916;-84
2023/12/16 11:10:31;;;;;;;;;;;9.80;99.90;;;;;;5013980;28;19913;-83
2023/12/16 11:12:58;;;;;;;;;;;9.90;99.90;;;;;;5009305;28;20008;-84
2023/12/16 11:15:24;;;;;;;;;;;9.90;99.90;;;;;;5010707;28;19910;-84
2023/12/16 11:17:53;;;;;;;;;;;10.00;99.90;;;;;;5008989;28;20430;-83
2023/12/16 11:20:19;;;;;;;;;;;9.90;99.90;;;;;;5008789;28;19913;-84
2023/12/16 11:22:48;;;;;;;;;;;10.00;99.90;;;;;;5009548;28;20288;-83
2023/12/16 11:25:18;;;;;;;;;;;10.00;99.90;;;;;;5013660;28;19992;-84
2023/12/16 11:27:46;;;;;;;;;;;10.00;99.90;;;;;;5012069;28;19913;-84
2023/12/16 11:30:15;;;;;;;;;;;10.10;99.90;;;;;;5012054;28;20000;-83
2023/12/16 11:32:42;;;;;;;;;;;10.10;99.90;;;;;;5007881;28;19909;-83
2023/12/16 11:35:08;;;;;;;;;;;10.10;99.90;;;;;;5002128;28;19953;-84
2023/12/16 11:37:36;;;;;;;;;;;10.10;99.90;;;;;;5013264;28;20355;-84
2023/12/16 11:40:07;;;;;;;;;;;10.20;99.90;;;;;;5013317;28;20294;-84
2023/12/16 11:42:46;;;;;;;;;;;10.20;99.90;;;;;;5009789;28;20009;-84
2023/12/16 11:45:42;;;;;;;;;;;10.30;99.90;;;;;;5026608;28;19992;-84
2023/12/16 11:48:08;;;;;;;;;;;10.30;99.90;;;;;;4955055;28;19918;-83
2023/12/16 11:50:37;;;;;;;;;;;10.20;99.90;;;;;;4955890;28;19914;-84
2023/12/16 11:53:03;;;;;;;;;;;10.20;99.90;;;;;;4949976;28;20005;-84
2023/12/16 11:55:29;;;;;;;;;;;10.20;99.90;;;;;;4967561;28;19961;-83
2023/12/16 11:57:55;;;;;;;;;;;10.20;99.90;;;;;;4950322;28;19914;-84
2023/12/16 12:00:21;;;;;;;;;;;10.10;99.90;;;;;;4967487;28;20001;-83
2023/12/16 12:02:50;;;;;;;;;;;10.20;99.90;;;;;;4955249;28;19933;-84
2023/12/16 12:05:16;;;;;;;;;;;10.20;99.90;;;;;;4976556;28;20008;-84
2023/12/16 12:07:42;;;;;;;;;;;10.20;99.90;;;;;;4963089;28;20009;-84
2023/12/16 12:10:08;;;;;;;;;;;10.10;99.90;;;;;;4950984;28;19969;-84
2023/12/16 12:15:14;;;;;;;2.60;1.58;;;10.30;99.90;;;;;;5133658;27;20114;-80
2023/12/16 12:17:39;;;;;;;4.68;2.30;;;12.30;99.90;;;;;;5130434;27;20038;-79
2023/12/16 12:20:06;;;;;;;10.45;4.75;;;12.80;99.90;;;;;;5120439;27;20066;-79
2023/12/16 12:22:33;;;;;;;3.95;2.35;;;11.40;99.90;;;;;;5118283;27;20018;-79
2023/12/16 12:24:59;;;;;;;3.40;2.47;;;9.40;99.90;;;;;;5131119;27;20430;-79
2023/12/16 12:27:24;;;;;;;4.00;2.50;;;9.10;99.90;;;;;;5128596;27;20075;-80
2023/12/16 12:29:59;;;;;;;3.17;2.05;;;10.70;99.90;;;;;;5127756;27;20031;-80
2023/12/16 12:32:27;;;;;;;1.67;1.58;;;12.00;99.90;;;;;;5122958;27;20015;-80
2023/12/16 12:34:59;;;;;;;1.70;1.27;;;12.50;99.90;;;;;;5126078;27;20107;-80
2023/12/16 12:37:26;;;;;;;2.17;1.50;;;12.60;99.90;;;;;;5129863;27;20015;-80
2023/12/16 12:39:52;;;;;;;2.25;1.30;;;12.60;99.90;;;;;;5130368;27;20076;-80
2023/12/16 12:42:17;;;;;;;1.70;1.23;;;12.50;99.90;;;;;;5119516;27;20028;-83
2023/12/16 12:44:53;;;;;;;2.92;1.42;;;12.30;99.90;;;;;;5125899;27;20035;-81
2023/12/16 12:47:32;;;;;;;4.75;1.52;;;12.40;99.90;;;;;;5126314;27;20023;-79
2023/12/16 12:49:58;;;;;;;4.28;2.20;;;10.80;92.50;;;;;;5129989;27;20489;-79
2023/12/16 12:52:39;;;;;;;4.28;2.00;;;8.70;99.70;;;;;;5128778;27;20031;-78
2023/12/16 12:55:05;;;;;;;2.80;2.00;;;8.40;99.90;;;;;;5128007;27;20027;-79
2023/12/16 12:57:32;;;;;;;2.72;1.95;;;10.90;99.90;;;;;;5121128;27;20015;-79
2023/12/16 13:00:01;;;;;;;4.35;1.67;;;11.90;99.90;;;;;;5114906;27;20065;-79
2023/12/16 13:02:27;;;;;;;2.17;1.70;;;12.40;97.60;;;;;;5122106;27;20028;-79
2023/12/16 13:04:52;;;;;;;3.45;1.77;;;12.60;96.90;;;;;;5125081;27;20493;-79
2023/12/16 13:07:18;;;;;;;2.55;1.70;;;12.70;96.80;;;;;;5123934;27;20381;-80
2023/12/16 13:09:44;;;;;;;4.72;1.90;;;12.70;97.30;;;;;;5118432;27;20028;-79
2023/12/16 13:12:09;;;;;;;3.38;2.03;;;12.60;96.20;;;;;;5116711;27;20621;-79
2023/12/16 13:14:35;;;;;;;3.65;2.08;;;12.60;96.70;;;;;;5128636;27;20495;-79
2023/12/16 13:17:00;;;;;;;2.85;1.95;;;12.70;95.50;;;;;;5130876;27;20489;-79
2023/12/16 13:19:26;;;;;;;7.35;2.20;;;12.70;96.20;;;;;;5123832;27;20023;-79
2023/12/16 13:21:51;;;;;;;2.20;1.75;;;12.70;96.60;;;;;;5127659;27;20058;-79
2023/12/16 13:24:17;;;;;;;2.60;1.80;;;12.70;95.60;;;;;;5122074;27;20032;-79
2023/12/16 13:26:42;;;;;;;4.80;1.95;;;12.80;95.80;;;;;;5111962;27;20012;-79
2023/12/16 13:29:08;;;;;;;2.10;1.80;;;12.80;95.90;;;;;;5110918;27;20043;-79
2023/12/16 13:31:33;;;;;;;3.05;2.00;;;12.80;96.20;;;;;;5109482;27;20019;-79
2023/12/16 13:33:59;;;;;;;3.72;2.42;;;12.80;96.60;;;;;;5112846;27;20023;-79
2023/12/16 13:36:26;;;;;;;2.50;2.00;;;12.80;95.40;;;;;;5118434;27;20065;-79
2023/12/16 13:38:52;;;;;;;2.67;1.73;;;12.90;94.80;;;;;;5117028;27;20019;-80
2023/12/16 13:41:18;;;;;;;3.60;1.90;;;12.90;94.60;;;;;;5116168;27;20092;-80
2023/12/16 13:43:44;;;;;;;2.30;1.67;;;12.90;95.10;;;;;;5113614;27;20481;-79
2023/12/16 13:46:10;;;;;;;2.60;1.50;;;12.80;95.20;;;;;;5113723;27;20112;-79
2023/12/16 13:48:35;;;;;;;1.83;1.50;;;12.80;95.10;;;;;;5110033;28;20532;-79
2023/12/16 13:51:01;;;;;;;4.63;1.88;;;13.00;93.90;;;;;;5118280;27;20023;-79
2023/12/16 13:53:27;;;;;;;3.53;1.75;;;13.10;94.00;;;;;;5114565;27;20099;-79
2023/12/16 13:55:52;;;;;;;6.00;1.67;;;13.00;94.90;;;;;;5112806;27;20102;-80
2023/12/16 13:58:18;;;;;;;2.15;1.67;;;12.90;95.00;;;;;;5115642;27;20024;-80
2023/12/16 14:00:44;;;;;;;2.70;1.58;;;12.90;94.30;;;;;;5111404;27;20072;-79
2023/12/16 14:03:09;;;;;;;2.05;1.55;;;13.00;94.30;;;;;;5118924;27;20503;-79
2023/12/16 14:05:35;;;;;;;1.92;1.35;;;13.00;95.50;;;;;;5113226;27;20071;-80
2023/12/16 14:08:00;;;;;;;2.00;1.52;;;13.00;94.80;;;;;;5108178;28;20393;-79
2023/12/16 14:10:26;;;;;;;2.33;1.67;;;13.00;94.20;;;;;;5104561;27;20031;-79